sensor_id;sensor_type;location;lat;lon;timestamp;pressure;altitude;pressure_sealevel;temperature;humidity
9325;BME280;4701;51.566;6.776;2022-12-29T06:01:31;99801.25;;;9.51;98.22
9325;BME280;4701;51.566;6.776;2022-12-29T06:03:34;99819.22;;;9.47;98.36
9325;BME280;4701;51.566;6.776;2022-12-29T06:05:37;99809.69;;;9.49;97.54
9325;BME280;4701;51.566;6.776;2022-12-29T06:07:39;99821.06;;;9.57;94.73
9325;BME280;4701;51.566;6.776;2022-12-29T06:09:41;99838.22;;;9.57;94.17
9325;BME280;4701;51.566;6.776;2022-12-29T06:11:44;99831.19;;;9.51;94.93
9325;BME280;4701;51.566;6.776;2022-12-29T06:13:45;99839.25;;;9.61;94.42
9325;BME280;4701;51.566;6.776;2022-12-29T06:15:48;99850.13;;;9.61;93.62
9325;BME280;4701;51.566;6.776;2022-12-29T06:17:51;99842.84;;;9.57;94.00
9325;BME280;4701;51.566;6.776;2022-12-29T06:19:53;99840.59;;;9.64;93.81
9325;BME280;4701;51.566;6.776;2022-12-29T06:21:55;99837.41;;;9.57;94.21
9325;BME280;4701;51.566;6.776;2022-12-29T06:23:57;99849.03;;;9.62;94.38
9325;BME280;4701;51.566;6.776;2022-12-29T06:25:59;99855.56;;;9.61;94.73
9325;BME280;4701;51.566;6.776;2022-12-29T06:28:01;99852.06;;;9.61;93.88
9325;BME280;4701;51.566;6.776;2022-12-29T06:30:04;99858.28;;;9.61;95.16
9325;BME280;4701;51.566;6.776;2022-12-29T06:32:06;99851.25;;;9.60;95.22
9325;BME280;4701;51.566;6.776;2022-12-29T06:34:11;99859.66;;;9.64;94.92
9325;BME280;4701;51.566;6.776;2022-12-29T06:36:13;99869.19;;;9.61;95.26
9325;BME280;4701;51.566;6.776;2022-12-29T06:38:15;99852.03;;;9.66;95.74
9325;BME280;4701;51.566;6.776;2022-12-29T06:40:17;99854.25;;;9.59;96.08
9325;BME280;4701;51.566;6.776;2022-12-29T06:42:41;99864.81;;;9.65;94.74
9325;BME280;4701;51.566;6.776;2022-12-29T06:44:56;99872.34;;;9.78;94.50
9325;BME280;4701;51.566;6.776;2022-12-29T06:46:59;99865.53;;;9.81;93.55
9325;BME280;4701;51.566;6.776;2022-12-29T06:49:01;99869.06;;;9.81;94.50
9325;BME280;4701;51.566;6.776;2022-12-29T06:51:04;99863.06;;;9.84;93.88
9325;BME280;4701;51.566;6.776;2022-12-29T06:53:06;99875.81;;;9.89;93.42
9325;BME280;4701;51.566;6.776;2022-12-29T06:55:08;99876.88;;;9.93;92.59
9325;BME280;4701;51.566;6.776;2022-12-29T06:57:10;99879.59;;;9.93;92.16
9325;BME280;4701;51.566;6.776;2022-12-29T06:59:12;99882.88;;;9.95;92.49
9325;BME280;4701;51.566;6.776;2022-12-29T07:01:14;99882.00;;;10.00;92.57
9325;BME280;4701;51.566;6.776;2022-12-29T07:03:16;99876.88;;;9.93;92.35
9325;BME280;4701;51.566;6.776;2022-12-29T07:05:18;99860.56;;;9.93;92.51
9325;BME280;4701;51.566;6.776;2022-12-29T07:07:21;99862.78;;;9.86;92.55
9325;BME280;4701;51.566;6.776;2022-12-29T07:09:23;99869.56;;;9.88;92.86
9325;BME280;4701;51.566;6.776;2022-12-29T07:11:25;99873.63;;;9.91;92.21
9325;BME280;4701;51.566;6.776;2022-12-29T07:13:28;99861.44;;;9.83;92.86
9325;BME280;4701;51.566;6.776;2022-12-29T07:15:30;99881.03;;;9.80;93.43
9325;BME280;4701;51.566;6.776;2022-12-29T07:17:32;99877.78;;;9.78;93.11
9325;BME280;4701;51.566;6.776;2022-12-29T07:19:34;99880.00;;;9.76;93.37
9325;BME280;4701;51.566;6.776;2022-12-29T07:21:36;99876.47;;;9.76;93.47
9325;BME280;4701;51.566;6.776;2022-12-29T07:23:39;99881.91;;;9.71;93.32
9325;BME280;4701;51.566;6.776;2022-12-29T07:25:41;99888.38;;;9.80;93.06
9325;BME280;4701;51.566;6.776;2022-12-29T07:27:43;99882.66;;;9.81;93.27
9325;BME280;4701;51.566;6.776;2022-12-29T07:29:47;99889.19;;;9.85;91.89
9325;BME280;4701;51.566;6.776;2022-12-29T07:31:49;99885.25;;;10.02;90.17
9325;BME280;4701;51.566;6.776;2022-12-29T07:33:56;99871.94;;;10.00;90.03
9325;BME280;4701;51.566;6.776;2022-12-29T07:35:58;99881.41;;;10.08;88.62
9325;BME280;4701;51.566;6.776;2022-12-29T07:38:00;99880.91;;;10.01;90.19
9325;BME280;4701;51.566;6.776;2022-12-29T07:40:04;99892.69;;;9.91;89.06
9325;BME280;4701;51.566;6.776;2022-12-29T07:42:07;99899.47;;;9.94;89.17
9325;BME280;4701;51.566;6.776;2022-12-29T07:44:15;99885.81;;;9.99;87.88
9325;BME280;4701;51.566;6.776;2022-12-29T07:46:46;99897.81;;;9.98;88.42
9325;BME280;4701;51.566;6.776;2022-12-29T07:48:48;99883.66;;;9.96;88.42
9325;BME280;4701;51.566;6.776;2022-12-29T07:50:53;99899.38;;;10.04;86.48
9325;BME280;4701;51.566;6.776;2022-12-29T07:52:55;99902.91;;;10.04;87.12
9325;BME280;4701;51.566;6.776;2022-12-29T07:54:57;99883.03;;;10.04;86.65
9325;BME280;4701;51.566;6.776;2022-12-29T07:57:00;99906.50;;;10.00;85.49
9325;BME280;4701;51.566;6.776;2022-12-29T07:59:02;99919.03;;;10.01;84.81
9325;BME280;4701;51.566;6.776;2022-12-29T08:01:04;99918.16;;;10.10;83.26
9325;BME280;4701;51.566;6.776;2022-12-29T08:03:06;99931.75;;;10.10;81.98
9325;BME280;4701;51.566;6.776;2022-12-29T08:05:08;99921.91;;;10.14;82.03
9325;BME280;4701;51.566;6.776;2022-12-29T08:07:10;99896.88;;;10.17;81.79
9325;BME280;4701;51.566;6.776;2022-12-29T08:09:12;99917.00;;;10.16;81.36
9325;BME280;4701;51.566;6.776;2022-12-29T08:11:14;99937.97;;;10.21;80.17
9325;BME280;4701;51.566;6.776;2022-12-29T08:13:17;99942.31;;;10.22;79.80
9325;BME280;4701;51.566;6.776;2022-12-29T08:15:19;99944.22;;;10.16;79.55
9325;BME280;4701;51.566;6.776;2022-12-29T08:17:20;99960.06;;;10.19;80.39
9325;BME280;4701;51.566;6.776;2022-12-29T08:19:23;99947.53;;;10.18;79.36
9325;BME280;4701;51.566;6.776;2022-12-29T08:21:24;99956.22;;;10.15;79.32
9325;BME280;4701;51.566;6.776;2022-12-29T08:23:29;99963.03;;;10.13;79.19
9325;BME280;4701;51.566;6.776;2022-12-29T08:25:31;99969.56;;;10.17;77.40
9325;BME280;4701;51.566;6.776;2022-12-29T08:27:33;99969.31;;;10.18;77.14
9325;BME280;4701;51.566;6.776;2022-12-29T08:29:36;99945.84;;;10.22;76.63
9325;BME280;4701;51.566;6.776;2022-12-29T08:31:38;99950.75;;;10.26;76.67
9325;BME280;4701;51.566;6.776;2022-12-29T08:33:40;99945.34;;;10.20;77.59
9325;BME280;4701;51.566;6.776;2022-12-29T08:35:42;99963.25;;;10.27;76.62
9325;BME280;4701;51.566;6.776;2022-12-29T08:37:44;99963.53;;;10.25;77.34
9325;BME280;4701;51.566;6.776;2022-12-29T08:39:46;99956.72;;;10.28;77.78
9325;BME280;4701;51.566;6.776;2022-12-29T08:41:48;99941.75;;;10.25;76.60
9325;BME280;4701;51.566;6.776;2022-12-29T08:43:51;99952.94;;;10.23;76.88
9325;BME280;4701;51.566;6.776;2022-12-29T08:45:58;99944.19;;;10.27;78.39
9325;BME280;4701;51.566;6.776;2022-12-29T08:48:03;99973.38;;;10.16;78.87
9325;BME280;4701;51.566;6.776;2022-12-29T08:50:06;99958.66;;;10.17;78.83
9325;BME280;4701;51.566;6.776;2022-12-29T08:52:08;99971.22;;;10.18;79.24
9325;BME280;4701;51.566;6.776;2022-12-29T08:54:12;99956.78;;;10.17;79.73
9325;BME280;4701;51.566;6.776;2022-12-29T08:56:22;99966.25;;;10.25;79.16
9325;BME280;4701;51.566;6.776;2022-12-29T08:58:28;99965.38;;;10.35;79.31
9325;BME280;4701;51.566;6.776;2022-12-29T09:00:30;99967.22;;;10.44;80.25
9325;BME280;4701;51.566;6.776;2022-12-29T09:02:33;99969.16;;;10.39;79.64
9325;BME280;4701;51.566;6.776;2022-12-29T09:04:35;99960.97;;;10.44;79.78
9325;BME280;4701;51.566;6.776;2022-12-29T09:06:37;99964.28;;;10.36;80.51
9325;BME280;4701;51.566;6.776;2022-12-29T09:08:42;99977.03;;;10.45;80.84
9325;BME280;4701;51.566;6.776;2022-12-29T09:10:44;99949.19;;;10.48;79.71
9325;BME280;4701;51.566;6.776;2022-12-29T09:12:46;99966.34;;;10.54;79.28
9325;BME280;4701;51.566;6.776;2022-12-29T09:14:48;99962.19;;;10.56;78.46
9325;BME280;4701;51.566;6.776;2022-12-29T09:16:51;99967.63;;;10.61;78.04
9325;BME280;4701;51.566;6.776;2022-12-29T09:19:12;99979.34;;;10.62;77.13
9325;BME280;4701;51.566;6.776;2022-12-29T09:21:14;99953.47;;;10.59;77.48
9325;BME280;4701;51.566;6.776;2022-12-29T09:23:16;99966.28;;;10.59;78.20
9325;BME280;4701;51.566;6.776;2022-12-29T09:25:18;99969.00;;;10.59;77.48
9325;BME280;4701;51.566;6.776;2022-12-29T09:27:20;99972.00;;;10.57;76.45
9325;BME280;4701;51.566;6.776;2022-12-29T09:29:22;99976.09;;;10.55;77.08
9325;BME280;4701;51.566;6.776;2022-12-29T09:31:24;99972.81;;;10.58;75.88
9325;BME280;4701;51.566;6.776;2022-12-29T09:33:27;99973.91;;;10.57;76.75
9325;BME280;4701;51.566;6.776;2022-12-29T09:35:30;99990.31;;;10.52;77.56
9325;BME280;4701;51.566;6.776;2022-12-29T09:37:33;99991.41;;;10.51;76.86
9325;BME280;4701;51.566;6.776;2022-12-29T09:39:35;99993.31;;;10.50;77.33
9325;BME280;4701;51.566;6.776;2022-12-29T09:41:41;99993.31;;;10.50;77.33
9325;BME280;4701;51.566;6.776;2022-12-29T09:43:54;99988.41;;;10.52;77.09
9325;BME280;4701;51.566;6.776;2022-12-29T09:46:10;99990.88;;;10.49;77.57
9325;BME280;4701;51.566;6.776;2022-12-29T09:48:18;99983.50;;;10.49;77.42
9325;BME280;4701;51.566;6.776;2022-12-29T09:50:24;99982.69;;;10.49;76.93
9325;BME280;4701;51.566;6.776;2022-12-29T09:52:32;99973.72;;;10.48;77.19
9325;BME280;4701;51.566;6.776;2022-12-29T09:54:45;99982.97;;;10.52;77.81
9325;BME280;4701;51.566;6.776;2022-12-29T09:56:51;99983.50;;;10.49;77.43
9325;BME280;4701;51.566;6.776;2022-12-29T09:58:56;99991.91;;;10.58;76.64
9325;BME280;4701;51.566;6.776;2022-12-29T10:01:03;99991.00;;;10.68;76.57
9325;BME280;4701;51.566;6.776;2022-12-29T10:03:14;99997.00;;;10.65;75.35
9325;BME280;4701;51.566;6.776;2022-12-29T10:05:27;99918.78;;;10.70;75.47
9325;BME280;4701;51.566;6.776;2022-12-29T10:07:38;99988.28;;;10.68;74.99
9325;BME280;4701;51.566;6.776;2022-12-29T10:09:48;100007.06;;;10.69;73.55
9325;BME280;4701;51.566;6.776;2022-12-29T10:12:06;99993.97;;;10.71;73.39
9325;BME280;4701;51.566;6.776;2022-12-29T10:14:22;99988.22;;;10.73;74.26
9325;BME280;4701;51.566;6.776;2022-12-29T10:16:38;100002.66;;;10.73;73.58
9325;BME280;4701;51.566;6.776;2022-12-29T10:19:06;99991.75;;;10.73;72.94
9325;BME280;4701;51.566;6.776;2022-12-29T10:21:25;99997.75;;;10.75;73.26
9325;BME280;4701;51.566;6.776;2022-12-29T10:23:33;100023.09;;;10.76;73.67
9325;BME280;4701;51.566;6.776;2022-12-29T10:25:38;99987.41;;;10.72;72.41
9325;BME280;4701;51.566;6.776;2022-12-29T10:27:42;99993.16;;;10.71;72.92
9325;BME280;4701;51.566;6.776;2022-12-29T10:29:48;100004.06;;;10.71;72.43
9325;BME280;4701;51.566;6.776;2022-12-29T10:31:55;100005.38;;;10.73;72.90
9325;BME280;4701;51.566;6.776;2022-12-29T10:34:02;100029.91;;;10.78;72.82
9325;BME280;4701;51.566;6.776;2022-12-29T10:36:13;99999.56;;;10.85;73.12
9325;BME280;4701;51.566;6.776;2022-12-29T10:38:22;100020.03;;;10.82;72.31
9325;BME280;4701;51.566;6.776;2022-12-29T10:40:32;100020.63;;;10.79;72.08
9325;BME280;4701;51.566;6.776;2022-12-29T10:42:40;100016.50;;;10.82;72.47
9325;BME280;4701;51.566;6.776;2022-12-29T10:44:44;100023.28;;;10.84;72.18
9325;BME280;4701;51.566;6.776;2022-12-29T10:46:54;100021.84;;;10.97;71.33
9325;BME280;4701;51.566;6.776;2022-12-29T10:48:56;99971.94;;;10.96;70.63
9325;BME280;4701;51.566;6.776;2022-12-29T10:51:00;100034.41;;;10.93;70.52
9325;BME280;4701;51.566;6.776;2022-12-29T10:53:05;100022.75;;;10.87;70.96
9325;BME280;4701;51.566;6.776;2022-12-29T10:55:13;100023.03;;;10.86;71.13
9325;BME280;4701;51.566;6.776;2022-12-29T10:57:25;100030.94;;;10.82;71.05
9325;BME280;4701;51.566;6.776;2022-12-29T10:59:29;100054.91;;;10.85;70.87
9325;BME280;4701;51.566;6.776;2022-12-29T11:01:36;100040.75;;;10.83;70.85
9325;BME280;4701;51.566;6.776;2022-12-29T11:03:59;100045.72;;;10.76;71.10
9325;BME280;4701;51.566;6.776;2022-12-29T11:06:06;100066.44;;;10.72;70.98
9325;BME280;4701;51.566;6.776;2022-12-29T11:08:13;100051.72;;;10.78;70.64
9325;BME280;4701;51.566;6.776;2022-12-29T11:10:19;100041.69;;;10.69;70.68
9325;BME280;4701;51.566;6.776;2022-12-29T11:12:24;100054.22;;;10.70;70.73
9325;BME280;4701;51.566;6.776;2022-12-29T11:14:28;100006.94;;;10.84;70.89
9325;BME280;4701;51.566;6.776;2022-12-29T11:16:32;100054.84;;;10.95;69.40
9325;BME280;4701;51.566;6.776;2022-12-29T11:18:36;100048.09;;;10.88;70.22
9325;BME280;4701;51.566;6.776;2022-12-29T11:20:39;100048.66;;;10.85;69.84
9325;BME280;4701;51.566;6.776;2022-12-29T11:22:44;100050.03;;;10.82;70.83
9325;BME280;4701;51.566;6.776;2022-12-29T11:24:47;100042.47;;;10.74;70.65
9325;BME280;4701;51.566;6.776;2022-12-29T11:26:51;100066.16;;;10.79;70.68
9325;BME280;4701;51.566;6.776;2022-12-29T11:29:21;100053.06;;;10.76;71.19
9325;BME280;4701;51.566;6.776;2022-12-29T11:31:24;100058.19;;;10.82;70.40
9325;BME280;4701;51.566;6.776;2022-12-29T11:33:27;100058.53;;;10.76;70.79
9325;BME280;4701;51.566;6.776;2022-12-29T11:35:32;100073.78;;;10.77;71.20
9325;BME280;4701;51.566;6.776;2022-12-29T11:37:37;100083.13;;;10.71;71.48
9325;BME280;4701;51.566;6.776;2022-12-29T11:39:43;100061.88;;;10.68;70.56
9325;BME280;4701;51.566;6.776;2022-12-29T11:41:52;100064.84;;;10.71;71.22
9325;BME280;4701;51.566;6.776;2022-12-29T11:43:56;100152.31;;;10.75;70.48
9325;BME280;4701;51.566;6.776;2022-12-29T11:46:00;100086.28;;;10.83;70.01
9325;BME280;4701;51.566;6.776;2022-12-29T11:48:07;100084.63;;;10.87;70.28
9325;BME280;4701;51.566;6.776;2022-12-29T11:50:17;100106.19;;;10.83;70.16
9325;BME280;4701;51.566;6.776;2022-12-29T11:52:24;100091.50;;;10.79;70.32
9325;BME280;4701;51.566;6.776;2022-12-29T11:54:29;100090.47;;;10.70;70.95
9325;BME280;4701;51.566;6.776;2022-12-29T11:56:39;100105.16;;;10.74;70.76
9325;BME280;4701;51.566;6.776;2022-12-29T11:58:42;100106.00;;;10.70;71.28
9325;BME280;4701;51.566;6.776;2022-12-29T12:00:47;100107.38;;;10.67;70.71
9325;BME280;4701;51.566;6.776;2022-12-29T12:02:54;100097.28;;;10.68;70.56
9325;BME280;4701;51.566;6.776;2022-12-29T12:05:03;100099.97;;;10.73;70.74
9325;BME280;4701;51.566;6.776;2022-12-29T12:07:13;100098.38;;;10.72;70.67
9325;BME280;4701;51.566;6.776;2022-12-29T12:09:21;100115.56;;;10.67;71.30
9325;BME280;4701;51.566;6.776;2022-12-29T12:11:29;100097.03;;;10.64;71.07
9325;BME280;4701;51.566;6.776;2022-12-29T12:13:41;100103.50;;;10.73;70.73
9325;BME280;4701;51.566;6.776;2022-12-29T12:15:48;100102.19;;;10.71;70.74
9325;BME280;4701;51.566;6.776;2022-12-29T12:17:59;100108.19;;;10.68;71.23
9325;BME280;4701;51.566;6.776;2022-12-29T12:20:13;100103.50;;;10.73;70.87
9325;BME280;4701;51.566;6.776;2022-12-29T12:22:21;100113.66;;;10.68;71.12
9325;BME280;4701;51.566;6.776;2022-12-29T12:24:37;100132.44;;;10.69;70.67
9325;BME280;4701;51.566;6.776;2022-12-29T12:26:52;100115.84;;;10.66;71.31
9325;BME280;4701;51.566;6.776;2022-12-29T12:28:58;100109.56;;;10.65;71.32
9325;BME280;4701;51.566;6.776;2022-12-29T12:31:01;100119.97;;;10.63;71.21
9325;BME280;4701;51.566;6.776;2022-12-29T12:33:18;100143.63;;;10.68;71.40
9325;BME280;4701;51.566;6.776;2022-12-29T12:35:32;100127.88;;;10.59;71.46
9325;BME280;4701;51.566;6.776;2022-12-29T12:37:48;100140.72;;;10.54;71.47
9325;BME280;4701;51.566;6.776;2022-12-29T12:40:15;100112.94;;;10.52;72.41
9325;BME280;4701;51.566;6.776;2022-12-29T12:42:32;100130.09;;;10.52;72.45
9325;BME280;4701;51.566;6.776;2022-12-29T12:44:45;100157.56;;;10.61;72.12
9325;BME280;4701;51.566;6.776;2022-12-29T12:47:06;100139.91;;;10.48;72.58
9325;BME280;4701;51.566;6.776;2022-12-29T12:49:24;100143.19;;;10.50;72.54
9325;BME280;4701;51.566;6.776;2022-12-29T12:51:34;100133.09;;;10.51;72.70
9325;BME280;4701;51.566;6.776;2022-12-29T12:53:52;100133.91;;;10.51;73.28
9325;BME280;4701;51.566;6.776;2022-12-29T12:56:23;100139.09;;;10.48;72.47
9325;BME280;4701;51.566;6.776;2022-12-29T12:58:35;100134.22;;;10.45;72.47
9325;BME280;4701;51.566;6.776;2022-12-29T13:00:49;100144.81;;;10.51;72.60
9325;BME280;4701;51.566;6.776;2022-12-29T13:03:05;100140.19;;;10.47;72.37
9325;BME280;4701;51.566;6.776;2022-12-29T13:05:46;100143.72;;;10.47;72.57
9325;BME280;4701;51.566;6.776;2022-12-29T13:08:00;100138.00;;;10.54;72.70
9325;BME280;4701;51.566;6.776;2022-12-29T13:10:19;100145.25;;;10.69;71.84
9325;BME280;4701;51.566;6.776;2022-12-29T13:12:33;100147.50;;;10.61;71.03
9325;BME280;4701;51.566;6.776;2022-12-29T13:14:44;100146.69;;;10.56;71.72
9325;BME280;4701;51.566;6.776;2022-12-29T13:16:59;100149.72;;;10.54;71.88
9325;BME280;4701;51.566;6.776;2022-12-29T13:19:10;100153.22;;;10.55;71.64
9325;BME280;4701;51.566;6.776;2022-12-29T13:21:27;100169.50;;;10.70;71.34
9325;BME280;4701;51.566;6.776;2022-12-29T13:23:38;100159.72;;;10.64;70.99
9325;BME280;4701;51.566;6.776;2022-12-29T13:25:49;100156.16;;;10.63;71.97
9325;BME280;4701;51.566;6.776;2022-12-29T13:27:56;100158.63;;;10.65;71.75
9325;BME280;4701;51.566;6.776;2022-12-29T13:30:04;100180.69;;;10.69;71.66
9325;BME280;4701;51.566;6.776;2022-12-29T13:32:18;100170.63;;;10.64;72.16
9325;BME280;4701;51.566;6.776;2022-12-29T13:34:32;100175.25;;;10.63;72.08
9325;BME280;4701;51.566;6.776;2022-12-29T13:36:40;100173.56;;;10.73;71.73
9325;BME280;4701;51.566;6.776;2022-12-29T13:38:47;100161.25;;;10.80;71.56
9325;BME280;4701;51.566;6.776;2022-12-29T13:40:52;100190.78;;;10.68;71.23
9325;BME280;4701;51.566;6.776;2022-12-29T13:42:57;100166.91;;;10.94;71.23
9325;BME280;4701;51.566;6.776;2022-12-29T13:45:01;100169.41;;;11.24;69.81
9325;BME280;4701;51.566;6.776;2022-12-29T13:47:15;100173.31;;;11.13;70.07
9325;BME280;4701;51.566;6.776;2022-12-29T13:49:19;100185.72;;;10.90;70.59
9325;BME280;4701;51.566;6.776;2022-12-29T13:51:22;100177.59;;;10.80;70.65
9325;BME280;4701;51.566;6.776;2022-12-29T13:53:33;100168.16;;;10.68;70.63
9325;BME280;4701;51.566;6.776;2022-12-29T13:55:41;100185.88;;;10.65;71.19
9325;BME280;4701;51.566;6.776;2022-12-29T13:57:51;100188.09;;;10.58;71.59
9325;BME280;4701;51.566;6.776;2022-12-29T14:00:02;100189.19;;;10.57;71.46
9325;BME280;4701;51.566;6.776;2022-12-29T14:02:23;100185.09;;;10.59;71.69
9325;BME280;4701;51.566;6.776;2022-12-29T14:04:28;100189.78;;;10.54;71.94
9325;BME280;4701;51.566;6.776;2022-12-29T14:06:34;100194.16;;;10.45;72.54
9325;BME280;4701;51.566;6.776;2022-12-29T14:08:43;100178.63;;;10.40;73.22
9325;BME280;4701;51.566;6.776;2022-12-29T14:10:47;100191.75;;;10.33;73.66
9325;BME280;4701;51.566;6.776;2022-12-29T14:12:50;100188.78;;;10.24;74.15
9325;BME280;4701;51.566;6.776;2022-12-29T14:14:52;100188.47;;;10.31;74.05
9325;BME280;4701;51.566;6.776;2022-12-29T14:16:54;100206.22;;;10.29;74.01
9325;BME280;4701;51.566;6.776;2022-12-29T14:19:13;100191.00;;;10.17;75.22
9325;BME280;4701;51.566;6.776;2022-12-29T14:21:19;100197.50;;;10.21;75.77
9325;BME280;4701;51.566;6.776;2022-12-29T14:23:34;100200.75;;;10.29;75.61
9325;BME280;4701;51.566;6.776;2022-12-29T14:26:10;100215.50;;;10.17;75.98
9325;BME280;4701;51.566;6.776;2022-12-29T14:28:16;100208.16;;;10.18;76.30
9325;BME280;4701;51.566;6.776;2022-12-29T14:30:51;100201.91;;;10.02;77.01
9325;BME280;4701;51.566;6.776;2022-12-29T14:33:09;100205.72;;;9.91;77.92
9325;BME280;4701;51.566;6.776;2022-12-29T14:35:39;100206.28;;;9.93;76.85
9325;BME280;4701;51.566;6.776;2022-12-29T14:37:41;100208.44;;;9.91;77.28
9325;BME280;4701;51.566;6.776;2022-12-29T14:39:46;100213.59;;;9.87;77.54
9325;BME280;4701;51.566;6.776;2022-12-29T14:41:59;100215.25;;;9.88;77.54
9325;BME280;4701;51.566;6.776;2022-12-29T14:44:12;100200.25;;;10.01;76.84
9325;BME280;4701;51.566;6.776;2022-12-29T14:46:17;100215.78;;;9.96;75.98
9325;BME280;4701;51.566;6.776;2022-12-29T14:48:32;100212.81;;;9.92;77.29
9325;BME280;4701;51.566;6.776;2022-12-29T14:50:40;100205.72;;;9.91;76.41
9325;BME280;4701;51.566;6.776;2022-12-29T14:52:46;100211.16;;;9.91;76.05
9325;BME280;4701;51.566;6.776;2022-12-29T14:54:51;100205.19;;;9.94;75.68
9325;BME280;4701;51.566;6.776;2022-12-29T14:56:57;100205.19;;;9.94;75.94
9325;BME280;4701;51.566;6.776;2022-12-29T14:59:01;100206.81;;;9.95;74.92
9325;BME280;4701;51.566;6.776;2022-12-29T15:01:17;100229.38;;;10.06;74.89
9325;BME280;4701;51.566;6.776;2022-12-29T15:03:22;100223.66;;;9.97;74.63
9325;BME280;4701;51.566;6.776;2022-12-29T15:05:30;100230.75;;;9.98;75.46
9325;BME280;4701;51.566;6.776;2022-12-29T15:07:33;100230.50;;;9.95;75.02
9325;BME280;4701;51.566;6.776;2022-12-29T15:09:38;100235.94;;;9.95;75.07
9325;BME280;4701;51.566;6.776;2022-12-29T15:11:48;100248.75;;;9.94;74.90
9325;BME280;4701;51.566;6.776;2022-12-29T15:13:53;100233.19;;;10.00;74.02
9325;BME280;4701;51.566;6.776;2022-12-29T15:15:55;100251.19;;;10.01;73.46
9325;BME280;4701;51.566;6.776;2022-12-29T15:17:56;100232.66;;;10.03;73.02
9325;BME280;4701;51.566;6.776;2022-12-29T15:19:59;100248.16;;;10.07;72.57
9325;BME280;4701;51.566;6.776;2022-12-29T15:22:02;100231.00;;;10.07;72.58
9325;BME280;4701;51.566;6.776;2022-12-29T15:24:05;100243.81;;;10.06;73.51
9325;BME280;4701;51.566;6.776;2022-12-29T15:26:11;100234.00;;;10.15;72.67
9325;BME280;4701;51.566;6.776;2022-12-29T15:28:21;100236.47;;;10.02;73.49
9325;BME280;4701;51.566;6.776;2022-12-29T15:30:25;100244.66;;;10.02;73.28
9325;BME280;4701;51.566;6.776;2022-12-29T15:32:39;100244.38;;;10.03;73.14
9325;BME280;4701;51.566;6.776;2022-12-29T15:34:41;100251.19;;;10.01;73.60
9325;BME280;4701;51.566;6.776;2022-12-29T15:36:43;100246.78;;;10.05;73.31
9325;BME280;4701;51.566;6.776;2022-12-29T15:38:47;100235.38;;;10.03;73.40
9325;BME280;4701;51.566;6.776;2022-12-29T15:40:53;100232.66;;;9.98;73.01
9325;BME280;4701;51.566;6.776;2022-12-29T15:43:11;100248.47;;;9.91;73.26
9325;BME280;4701;51.566;6.776;2022-12-29T15:45:17;100256.34;;;9.97;73.57
9325;BME280;4701;51.566;6.776;2022-12-29T15:47:22;100262.88;;;9.91;74.02
9325;BME280;4701;51.566;6.776;2022-12-29T15:49:24;100264.00;;;9.85;74.78
9325;BME280;4701;51.566;6.776;2022-12-29T15:51:29;100272.97;;;9.85;74.23
9325;BME280;4701;51.566;6.776;2022-12-29T15:53:32;100271.06;;;9.86;74.61
9325;BME280;4701;51.566;6.776;2022-12-29T15:55:36;100283.03;;;9.80;75.15
9325;BME280;4701;51.566;6.776;2022-12-29T15:57:42;100278.41;;;9.75;74.99
9325;BME280;4701;51.566;6.776;2022-12-29T15:59:46;100275.69;;;9.75;75.18
9325;BME280;4701;51.566;6.776;2022-12-29T16:01:49;100286.03;;;9.68;75.93
9325;BME280;4701;51.566;6.776;2022-12-29T16:03:53;100289.59;;;9.69;75.71
9325;BME280;4701;51.566;6.776;2022-12-29T16:05:57;100287.94;;;9.73;74.87
9325;BME280;4701;51.566;6.776;2022-12-29T16:08:27;100293.63;;;9.71;75.35
9325;BME280;4701;51.566;6.776;2022-12-29T16:10:33;100297.47;;;9.75;74.30
9325;BME280;4701;51.566;6.776;2022-12-29T16:12:40;100295.28;;;9.72;75.09
9325;BME280;4701;51.566;6.776;2022-12-29T16:14:44;100304.28;;;9.78;75.62
9325;BME280;4701;51.566;6.776;2022-12-29T16:16:49;100299.63;;;9.78;78.88
9325;BME280;4701;51.566;6.776;2022-12-29T16:18:52;100290.66;;;9.53;79.82
9325;BME280;4701;51.566;6.776;2022-12-29T16:20:55;100287.91;;;9.37;80.10
9325;BME280;4701;51.566;6.776;2022-12-29T16:22:59;100325.69;;;9.29;80.07
9325;BME280;4701;51.566;6.776;2022-12-29T16:25:06;100304.44;;;9.21;81.32
9325;BME280;4701;51.566;6.776;2022-12-29T16:27:17;100314.75;;;9.14;81.78
9325;BME280;4701;51.566;6.776;2022-12-29T16:29:22;100310.66;;;9.06;82.12
9325;BME280;4701;51.566;6.776;2022-12-29T16:31:32;100309.56;;;9.02;81.78
9325;BME280;4701;51.566;6.776;2022-12-29T16:33:43;100317.97;;;8.95;82.82
9325;BME280;4701;51.566;6.776;2022-12-29T16:35:47;100319.03;;;8.94;84.11
9325;BME280;4701;51.566;6.776;2022-12-29T16:38:07;100315.19;;;8.80;85.41
9325;BME280;4701;51.566;6.776;2022-12-29T16:40:28;100329.53;;;8.70;86.51
9325;BME280;4701;51.566;6.776;2022-12-29T16:42:35;100327.06;;;8.59;88.97
9325;BME280;4701;51.566;6.776;2022-12-29T16:44:37;100334.31;;;8.48;89.47
9325;BME280;4701;51.566;6.776;2022-12-29T16:46:44;100337.47;;;8.35;91.21
9325;BME280;4701;51.566;6.776;2022-12-29T16:48:58;100340.13;;;8.30;92.72
9325;BME280;4701;51.566;6.776;2022-12-29T16:51:03;100337.91;;;8.22;94.00
9325;BME280;4701;51.566;6.776;2022-12-29T16:53:15;100335.94;;;8.12;94.42
9325;BME280;4701;51.566;6.776;2022-12-29T16:55:20;100341.94;;;8.14;94.17
9325;BME280;4701;51.566;6.776;2022-12-29T16:57:23;100341.81;;;7.99;94.75
9325;BME280;4701;51.566;6.776;2022-12-29T16:59:33;100360.28;;;8.02;96.13
9325;BME280;4701;51.566;6.776;2022-12-29T17:01:36;100354.56;;;7.98;95.49
9325;BME280;4701;51.566;6.776;2022-12-29T17:03:41;100348.03;;;7.99;96.14
9325;BME280;4701;51.566;6.776;2022-12-29T17:05:44;100356.84;;;7.80;96.10
9325;BME280;4701;51.566;6.776;2022-12-29T17:07:47;100367.00;;;7.63;96.71
9325;BME280;4701;51.566;6.776;2022-12-29T17:09:51;100360.06;;;7.50;98.55
9325;BME280;4701;51.566;6.776;2022-12-29T17:11:56;100353.88;;;7.28;99.79
9325;BME280;4701;51.566;6.776;2022-12-29T17:14:00;100377.84;;;7.14;100.00
9325;BME280;4701;51.566;6.776;2022-12-29T17:16:02;100380.19;;;7.05;100.00
9325;BME280;4701;51.566;6.776;2022-12-29T17:18:04;100375.59;;;7.06;100.00
9325;BME280;4701;51.566;6.776;2022-12-29T17:20:14;100383.81;;;6.94;100.00
9325;BME280;4701;51.566;6.776;2022-12-29T17:22:18;100388.75;;;6.97;100.00
9325;BME280;4701;51.566;6.776;2022-12-29T17:24:22;100372.75;;;6.96;100.00
9325;BME280;4701;51.566;6.776;2022-12-29T17:26:23;100380.19;;;7.05;100.00
9325;BME280;4701;51.566;6.776;2022-12-29T17:28:27;100383.44;;;7.07;100.00
9325;BME280;4701;51.566;6.776;2022-12-29T17:30:32;100366.06;;;7.03;100.00